createdAt,value
2019-05-05T00:00:38.784Z,977.3
2019-05-05T00:01:40.027Z,977.4
2019-05-05T00:02:41.280Z,977.4
2019-05-05T00:03:44.373Z,977.4
2019-05-05T00:04:46.298Z,977.4
2019-05-05T00:05:47.533Z,977.4
2019-05-05T00:06:48.815Z,977.4
2019-05-05T00:07:50.068Z,977.4
2019-05-05T00:08:51.386Z,977.4
2019-05-05T00:09:52.642Z,977.4
2019-05-05T00:10:57.424Z,977.3
2019-05-05T00:12:01.025Z,977.3
2019-05-05T00:13:04.307Z,977.3
2019-05-05T00:14:08.169Z,977.3
2019-05-05T00:15:09.430Z,977.4
2019-05-05T00:16:10.672Z,977.4
2019-05-05T00:17:11.932Z,977.4
2019-05-05T00:18:15.668Z,977.4
2019-05-05T00:19:33.012Z,977.3
2019-05-05T00:20:35.134Z,977.4
2019-05-05T00:21:36.375Z,977.4
2019-05-05T00:22:37.632Z,977.4
2019-05-05T00:23:39.021Z,977.4
2019-05-05T00:24:40.298Z,977.4
2019-05-05T00:25:41.566Z,977.4
2019-05-05T00:26:42.821Z,977.4
2019-05-05T00:27:50.101Z,977.5
2019-05-05T00:28:51.960Z,977.4
2019-05-05T00:29:55.379Z,977.4
2019-05-05T00:30:56.666Z,977.5
2019-05-05T00:31:57.903Z,977.4
2019-05-05T00:33:06.399Z,977.5
2019-05-05T00:34:07.641Z,977.5
2019-05-05T00:35:08.930Z,977.5
2019-05-05T00:36:10.179Z,977.4
2019-05-05T00:37:11.436Z,977.5
2019-05-05T00:38:14.996Z,977.5
2019-05-05T00:39:16.246Z,977.5
2019-05-05T00:40:17.528Z,977.5
2019-05-05T00:41:18.775Z,977.5
2019-05-05T00:42:20.050Z,977.5
2019-05-05T00:43:21.299Z,977.5
2019-05-05T00:44:24.531Z,977.5
2019-05-05T00:45:26.048Z,977.6
2019-05-05T00:46:27.304Z,977.5
2019-05-05T00:47:28.620Z,977.4
2019-05-05T00:48:29.991Z,977.5
2019-05-05T00:49:48.962Z,977.5
2019-05-05T00:50:52.614Z,977.5
2019-05-05T00:51:55.489Z,977.6
2019-05-05T00:52:56.746Z,977.5
2019-05-05T00:53:58.882Z,977.5
2019-05-05T00:55:00.171Z,977.5
2019-05-05T00:56:01.430Z,977.4
2019-05-05T00:57:05.283Z,977.6
2019-05-05T00:58:06.556Z,977.5
2019-05-05T00:59:07.816Z,977.5
2019-05-05T01:00:09.061Z,977.5
2019-05-05T01:01:11.029Z,977.5
2019-05-05T01:02:17.843Z,977.5
2019-05-05T01:03:19.101Z,977.5
2019-05-05T01:04:20.327Z,977.5
2019-05-05T01:05:21.571Z,977.5
2019-05-05T01:06:26.344Z,977.6
2019-05-05T01:07:27.587Z,977.5
2019-05-05T01:08:28.849Z,977.5
2019-05-05T01:09:30.124Z,977.6
2019-05-05T01:10:31.355Z,977.6
2019-05-05T01:11:36.298Z,977.6
2019-05-05T01:12:37.534Z,977.6
2019-05-05T01:13:38.767Z,977.5
2019-05-05T01:14:40.017Z,977.6
2019-05-05T01:15:41.255Z,977.6
2019-05-05T01:16:45.561Z,977.7
2019-05-05T01:17:49.493Z,977.7
2019-05-05T01:18:50.739Z,977.6
2019-05-05T01:20:06.229Z,977.7
2019-05-05T01:21:07.999Z,977.7
2019-05-05T01:22:09.594Z,977.7
2019-05-05T01:23:15.817Z,977.7
2019-05-05T01:24:20.255Z,977.8
2019-05-05T01:25:21.519Z,977.7
2019-05-05T01:26:24.611Z,977.8
2019-05-05T01:27:28.865Z,977.8
2019-05-05T01:28:30.123Z,977.8
2019-05-05T01:29:31.657Z,977.8
2019-05-05T01:30:34.897Z,977.8
2019-05-05T01:31:36.591Z,977.8
2019-05-05T01:32:37.884Z,977.8
2019-05-05T01:33:39.147Z,977.9
2019-05-05T01:34:40.389Z,977.9
2019-05-05T01:35:41.631Z,977.8
2019-05-05T01:36:44.580Z,977.9
2019-05-05T01:37:46.734Z,977.8
2019-05-05T01:38:48.020Z,977.9
2019-05-05T01:39:49.289Z,977.9
2019-05-05T01:40:50.556Z,977.7
2019-05-05T01:41:51.799Z,977.9
2019-05-05T01:42:55.519Z,977.9
2019-05-05T01:43:56.786Z,977.9
2019-05-05T01:45:00.395Z,977.9
2019-05-05T01:46:01.665Z,978
2019-05-05T01:47:02.898Z,978
2019-05-05T01:48:05.638Z,977.9
2019-05-05T01:49:07.207Z,978
2019-05-05T01:50:21.101Z,978
2019-05-05T01:51:24.256Z,978
2019-05-05T01:52:28.746Z,978
2019-05-05T01:53:30.031Z,978
2019-05-05T01:54:31.259Z,978
2019-05-05T01:55:34.130Z,978
2019-05-05T01:56:36.131Z,978
2019-05-05T01:57:37.388Z,978
2019-05-05T01:58:38.671Z,978.1
2019-05-05T01:59:39.889Z,978
2019-05-05T02:00:41.121Z,978
2019-05-05T02:01:44.308Z,978
2019-05-05T02:02:45.755Z,978.1
2019-05-05T02:03:48.247Z,978
2019-05-05T02:04:49.507Z,978.1
2019-05-05T02:05:50.737Z,978
2019-05-05T02:06:51.997Z,978.1
2019-05-05T02:07:56.667Z,978
2019-05-05T02:08:57.951Z,978.1
2019-05-05T02:09:59.196Z,978
2019-05-05T02:11:00.452Z,978.1
2019-05-05T02:12:01.683Z,978.1
2019-05-05T02:13:05.293Z,978.1
2019-05-05T02:14:06.567Z,978.1
2019-05-05T02:15:07.820Z,978.1
2019-05-05T02:16:09.077Z,978.1
2019-05-05T02:17:10.360Z,978.1
2019-05-05T02:18:11.583Z,978.1
2019-05-05T02:19:14.951Z,978.2
2019-05-05T02:20:31.284Z,978.2
2019-05-05T02:21:32.683Z,978.2
2019-05-05T02:22:36.289Z,978.2
2019-05-05T02:23:37.539Z,978.2
2019-05-05T02:24:38.821Z,978.2
2019-05-05T02:25:40.042Z,978.1
2019-05-05T02:26:41.305Z,978.1
2019-05-05T02:27:44.222Z,978.2
2019-05-05T02:28:46.159Z,978.2
2019-05-05T02:29:47.446Z,978.2
2019-05-05T02:30:48.697Z,978.2
2019-05-05T02:31:49.948Z,978.2
2019-05-05T02:32:51.177Z,978.2
2019-05-05T02:33:56.773Z,978.1
2019-05-05T02:34:58.398Z,978.2
2019-05-05T02:35:59.659Z,978.2
2019-05-05T02:37:00.883Z,978.2
2019-05-05T02:38:06.435Z,978.2
2019-05-05T02:39:08.579Z,978.2
2019-05-05T02:40:09.906Z,978.2
2019-05-05T02:41:11.158Z,978.2
2019-05-05T02:42:15.329Z,978.2
2019-05-05T02:43:16.594Z,978.2
2019-05-05T02:44:17.874Z,978.3
2019-05-05T02:45:19.195Z,978.2
2019-05-05T02:46:20.414Z,978.2
2019-05-05T02:47:21.669Z,978.2
2019-05-05T02:48:25.695Z,978.3
2019-05-05T02:49:26.918Z,978.3
2019-05-05T02:50:28.211Z,978.3
2019-05-05T02:51:29.722Z,978
2019-05-05T02:52:30.946Z,978.3
2019-05-05T02:53:34.642Z,978.3
2019-05-05T02:54:35.878Z,978.3
2019-05-05T02:55:37.163Z,978.3
2019-05-05T02:56:38.396Z,978.1
2019-05-05T02:57:39.681Z,978.3
2019-05-05T02:58:40.931Z,978.3
2019-05-05T02:59:44.202Z,978.4
2019-05-05T03:00:45.474Z,978.3
2019-05-05T03:01:46.732Z,978.4
2019-05-05T03:02:47.985Z,978.4
2019-05-05T03:03:49.220Z,978.5
2019-05-05T03:04:50.472Z,978.4
2019-05-05T03:05:53.412Z,978.5
2019-05-05T03:06:55.429Z,978.4
2019-05-05T03:07:56.646Z,978.5
2019-05-05T03:08:57.896Z,978.5
2019-05-05T03:09:59.140Z,978.5
2019-05-05T03:11:00.424Z,978.5
2019-05-05T03:12:01.664Z,978.5
2019-05-05T03:13:04.690Z,978.5
2019-05-05T03:14:06.180Z,978.5
2019-05-05T03:15:07.433Z,978.5
2019-05-05T03:16:08.692Z,978.5
2019-05-05T03:17:09.926Z,978.5
2019-05-05T03:18:12.934Z,978.5
2019-05-05T03:19:14.978Z,978.5
2019-05-05T03:20:16.246Z,978.5
2019-05-05T03:21:17.510Z,978.5
2019-05-05T03:22:19.560Z,978.5
2019-05-05T03:23:20.810Z,978.5
2019-05-05T03:24:24.254Z,978.6
2019-05-05T03:25:25.505Z,978.5
2019-05-05T03:26:28.706Z,978.5
2019-05-05T03:27:30.343Z,978.6
2019-05-05T03:28:35.190Z,978.5
2019-05-05T03:29:36.436Z,978.6
2019-05-05T03:30:37.668Z,978.5
2019-05-05T03:31:38.932Z,978.6
2019-05-05T03:32:40.196Z,978.6
2019-05-05T03:33:41.442Z,978.7
2019-05-05T03:34:44.323Z,978.6
2019-05-05T03:35:45.788Z,978.5
2019-05-05T03:36:47.094Z,978.6
2019-05-05T03:37:48.338Z,978.7
2019-05-05T03:38:49.585Z,978.7
2019-05-05T03:39:50.828Z,978.7
2019-05-05T03:40:54.053Z,978.6
2019-05-05T03:41:55.485Z,978.6
2019-05-05T03:42:56.748Z,978.7
2019-05-05T03:43:57.979Z,978.6
2019-05-05T03:44:59.220Z,978.7
2019-05-05T03:46:00.468Z,978.7
2019-05-05T03:47:03.368Z,978.6
2019-05-05T03:48:05.429Z,978.7
2019-05-05T03:49:06.671Z,978.7
2019-05-05T03:50:07.913Z,978.6
2019-05-05T03:51:21.154Z,978.8
2019-05-05T03:52:25.109Z,978.8
2019-05-05T03:53:26.366Z,978.9
2019-05-05T03:54:27.604Z,978.9
2019-05-05T03:55:28.867Z,978.9
2019-05-05T03:56:35.422Z,978.9
2019-05-05T03:57:36.694Z,979
2019-05-05T03:58:37.929Z,979
2019-05-05T03:59:39.162Z,979
2019-05-05T04:00:40.402Z,978.9
2019-05-05T04:01:43.797Z,979
2019-05-05T04:02:45.283Z,979
2019-05-05T04:03:46.533Z,979
2019-05-05T04:04:47.762Z,979.1
2019-05-05T04:05:49.238Z,979.1
2019-05-05T04:06:50.492Z,979.1
2019-05-05T04:07:51.789Z,979.1
2019-05-05T04:08:56.019Z,979.1
2019-05-05T04:09:57.261Z,979.1
2019-05-05T04:10:58.491Z,979.2
2019-05-05T04:11:59.763Z,979.2
2019-05-05T04:13:01.067Z,979.2
2019-05-05T04:14:04.279Z,979.2
2019-05-05T04:15:06.461Z,979.2
2019-05-05T04:16:07.703Z,979.1
2019-05-05T04:17:08.935Z,979.2
2019-05-05T04:18:10.228Z,979.2
2019-05-05T04:19:11.468Z,979.2
2019-05-05T04:20:14.606Z,979.3
2019-05-05T04:21:15.887Z,979.3
2019-05-05T04:22:17.165Z,979.3
2019-05-05T04:23:18.456Z,979.3
2019-05-05T04:24:19.729Z,979.3
2019-05-05T04:25:20.989Z,978.6
2019-05-05T04:26:24.128Z,979.2
2019-05-05T04:27:25.371Z,979.2
2019-05-05T04:28:26.635Z,979.2
2019-05-05T04:29:27.879Z,979.1
2019-05-05T04:30:29.137Z,979.1
2019-05-05T04:31:30.377Z,979.2
2019-05-05T04:32:31.621Z,979.2
2019-05-05T04:33:34.830Z,979.2
2019-05-05T04:34:36.112Z,979.4
2019-05-05T04:35:37.371Z,979.4
2019-05-05T04:36:38.613Z,979.2
2019-05-05T04:37:39.839Z,979.4
2019-05-05T04:38:41.479Z,979.4
2019-05-05T04:39:47.323Z,979.4
2019-05-05T04:40:48.619Z,979.5
2019-05-05T04:41:49.983Z,979.4
2019-05-05T04:42:51.229Z,979.5
2019-05-05T04:43:54.471Z,979.5
2019-05-05T04:44:56.079Z,979.5
2019-05-05T04:45:57.310Z,979.5
2019-05-05T04:46:58.563Z,979.5
2019-05-05T04:47:59.795Z,979.5
2019-05-05T04:49:01.078Z,979.5
2019-05-05T04:50:04.108Z,979.3
2019-05-05T04:51:05.663Z,979.6
2019-05-05T04:52:06.903Z,979.5
2019-05-05T04:53:08.157Z,979.5
2019-05-05T04:54:09.478Z,979.5
2019-05-05T04:55:10.735Z,979.6
2019-05-05T04:56:13.640Z,979.6
2019-05-05T04:57:15.745Z,979.6
2019-05-05T04:58:16.973Z,979.6
2019-05-05T04:59:18.285Z,979.6
2019-05-05T05:00:19.521Z,979.6
2019-05-05T05:01:20.772Z,979.6
2019-05-05T05:02:24.268Z,979.6
2019-05-05T05:03:25.544Z,979.6
2019-05-05T05:04:29.549Z,979.5
2019-05-05T05:05:30.833Z,979.6
2019-05-05T05:06:34.018Z,979.6
2019-05-05T05:07:35.414Z,979.6
2019-05-05T05:08:36.658Z,979.6
2019-05-05T05:09:40.951Z,979.6
2019-05-05T05:10:44.417Z,979.6
2019-05-05T05:11:45.665Z,979.6
2019-05-05T05:12:47.024Z,979.6
2019-05-05T05:13:48.299Z,979.6
2019-05-05T05:14:49.568Z,979.7
2019-05-05T05:15:51.029Z,979.7
2019-05-05T05:16:54.873Z,979.7
2019-05-05T05:17:59.451Z,979.8
2019-05-05T05:19:00.703Z,979.7
2019-05-05T05:20:04.627Z,979.7
2019-05-05T05:21:05.878Z,979.7
2019-05-05T05:22:07.255Z,979.6
2019-05-05T05:23:08.517Z,979.7
2019-05-05T05:24:09.820Z,979.7
2019-05-05T05:25:11.123Z,979.7
2019-05-05T05:26:14.594Z,979.7
2019-05-05T05:27:15.844Z,979.8
2019-05-05T05:28:17.081Z,979.8
2019-05-05T05:29:18.297Z,979.9
2019-05-05T05:30:19.801Z,979.8
2019-05-05T05:31:21.335Z,979.8
2019-05-05T05:32:24.663Z,979.9
2019-05-05T05:33:26.364Z,979.8
2019-05-05T05:34:27.618Z,979.8
2019-05-05T05:35:28.896Z,979.9
2019-05-05T05:36:30.407Z,979.8
2019-05-05T05:37:31.650Z,979.8
2019-05-05T05:38:35.214Z,979.9
2019-05-05T05:39:36.452Z,979.9
2019-05-05T05:40:37.772Z,979.8
2019-05-05T05:41:39.040Z,979.9
2019-05-05T05:42:40.303Z,979.9
2019-05-05T05:43:43.474Z,979.8
2019-05-05T05:44:45.269Z,979.8
2019-05-05T05:45:46.547Z,979.9
2019-05-05T05:46:47.811Z,979.9
2019-05-05T05:47:49.084Z,979.9
2019-05-05T05:48:50.349Z,979.9
2019-05-05T05:49:51.610Z,979.9
2019-05-05T05:50:54.390Z,980
2019-05-05T05:51:55.646Z,980
2019-05-05T05:53:01.728Z,980
2019-05-05T05:54:04.549Z,980
2019-05-05T05:55:05.940Z,980
2019-05-05T05:56:07.598Z,980
2019-05-05T05:57:08.900Z,980.1
2019-05-05T05:58:10.198Z,980.1
2019-05-05T05:59:11.470Z,980.1
2019-05-05T06:00:15.126Z,980.1
2019-05-05T06:01:16.664Z,980.1
2019-05-05T06:02:20.346Z,980.1
2019-05-05T06:03:24.385Z,980.1
2019-05-05T06:04:25.814Z,980.1
2019-05-05T06:05:27.126Z,980.2
2019-05-05T06:06:28.394Z,980.1
2019-05-05T06:07:29.654Z,980.1
2019-05-05T06:08:30.916Z,980.1
2019-05-05T06:09:34.258Z,980.1
2019-05-05T06:10:35.675Z,980.1
2019-05-05T06:11:37.020Z,980.1
2019-05-05T06:12:41.235Z,980.1
2019-05-05T06:13:47.266Z,980
2019-05-05T06:14:48.956Z,980.1
2019-05-05T06:15:50.199Z,980.1
2019-05-05T06:16:51.512Z,980.1
2019-05-05T06:17:54.546Z,980.1
2019-05-05T06:18:55.830Z,980.1
2019-05-05T06:19:59.438Z,980.2
2019-05-05T06:21:05.296Z,980.3
2019-05-05T06:22:06.561Z,980.3
2019-05-05T06:23:07.798Z,980.3
2019-05-05T06:24:09.068Z,980.2
2019-05-05T06:25:10.317Z,980.2
2019-05-05T06:26:15.834Z,980.2
2019-05-05T06:27:17.146Z,980.2
2019-05-05T06:28:18.644Z,980.1
2019-05-05T06:29:19.916Z,980.1
2019-05-05T06:30:21.308Z,980.1
2019-05-05T06:31:24.432Z,980.1
2019-05-05T06:32:25.954Z,980.1
2019-05-05T06:33:27.237Z,980.1
2019-05-05T06:34:28.498Z,980.2
2019-05-05T06:35:29.748Z,980.1
2019-05-05T06:36:30.993Z,980.1
2019-05-05T06:37:34.112Z,980
2019-05-05T06:38:35.598Z,980.1
2019-05-05T06:39:37.073Z,980.1
2019-05-05T06:40:38.398Z,980.1
2019-05-05T06:41:39.692Z,980.1
2019-05-05T06:42:43.501Z,980.1
2019-05-05T06:43:44.949Z,980.2
2019-05-05T06:44:46.188Z,980.1
2019-05-05T06:45:47.428Z,980.1
2019-05-05T06:46:48.690Z,980.2
2019-05-05T06:47:50.028Z,980.1
2019-05-05T06:48:51.268Z,980.1
2019-05-05T06:49:54.817Z,980.2
2019-05-05T06:50:56.079Z,980.2
2019-05-05T06:51:57.353Z,980.1
2019-05-05T06:52:58.637Z,980.1
2019-05-05T06:53:59.899Z,980.1
2019-05-05T06:55:01.162Z,980.2
2019-05-05T06:56:04.728Z,980.1
2019-05-05T06:57:06.047Z,980.2
2019-05-05T06:58:07.506Z,980
2019-05-05T06:59:08.838Z,980.2
2019-05-05T07:00:10.069Z,980.2
2019-05-05T07:01:14.260Z,980.2
2019-05-05T07:02:15.674Z,980.2
2019-05-05T07:03:17.303Z,980.3
2019-05-05T07:04:18.561Z,980.2
2019-05-05T07:05:19.820Z,980.2
2019-05-05T07:06:21.060Z,980.2
2019-05-05T07:07:25.613Z,980.2
2019-05-05T07:08:26.915Z,980.2
2019-05-05T07:09:28.184Z,980.3
2019-05-05T07:10:29.434Z,980.3
2019-05-05T07:11:37.152Z,980.3
2019-05-05T07:12:38.396Z,980.2
2019-05-05T07:13:39.688Z,980.2
2019-05-05T07:14:40.947Z,980.2
2019-05-05T07:15:44.453Z,980.2
2019-05-05T07:16:45.965Z,980.3
2019-05-05T07:17:47.229Z,980.3
2019-05-05T07:18:48.505Z,980.3
2019-05-05T07:19:49.986Z,980.3
2019-05-05T07:20:51.257Z,980.3
2019-05-05T07:21:54.609Z,980.3
2019-05-05T07:23:05.190Z,980.3
2019-05-05T07:24:06.643Z,980.3
2019-05-05T07:25:07.888Z,980.3
2019-05-05T07:26:09.200Z,980.3
2019-05-05T07:27:10.457Z,980.2
2019-05-05T07:28:11.711Z,980.2
2019-05-05T07:29:18.053Z,980
2019-05-05T07:30:19.435Z,980.2
2019-05-05T07:31:20.699Z,980.2
2019-05-05T07:32:21.968Z,980.2
2019-05-05T07:33:24.582Z,980.2
2019-05-05T07:34:30.780Z,980.2
2019-05-05T07:35:34.270Z,980.2
2019-05-05T07:36:35.891Z,980.2
2019-05-05T07:37:40.019Z,980.2
2019-05-05T07:38:41.355Z,980.2
2019-05-05T07:39:45.228Z,980.2
2019-05-05T07:40:46.495Z,980.2
2019-05-05T07:41:55.037Z,980.2
2019-05-05T07:42:56.325Z,980.2
2019-05-05T07:43:57.608Z,980.2
2019-05-05T07:45:00.889Z,980.2
2019-05-05T07:46:03.911Z,980.2
2019-05-05T07:47:05.734Z,980.2
2019-05-05T07:48:09.977Z,980.3
2019-05-05T07:49:11.217Z,980.3
2019-05-05T07:50:32.392Z,980.3
2019-05-05T07:51:34.419Z,980.2
2019-05-05T07:52:35.671Z,980.3
2019-05-05T07:53:37.267Z,980.3
2019-05-05T07:54:38.539Z,980.3
2019-05-05T07:55:41.241Z,980.2
2019-05-05T07:56:45.047Z,980.3
2019-05-05T07:57:46.677Z,980.2
2019-05-05T07:58:54.300Z,980.2
2019-05-05T07:59:58.287Z,980.3
2019-05-05T08:00:59.583Z,980.3
2019-05-05T08:02:00.835Z,980.3
2019-05-05T08:03:05.389Z,980.3
2019-05-05T08:04:08.287Z,980.3
2019-05-05T08:05:09.543Z,980.3
2019-05-05T08:06:10.933Z,980.3
2019-05-05T08:07:14.482Z,980.3
2019-05-05T08:08:16.228Z,980.3
2019-05-05T08:09:17.515Z,980.3
2019-05-05T08:10:18.821Z,979.9
2019-05-05T08:11:20.104Z,980.3
2019-05-05T08:12:21.367Z,980.3
2019-05-05T08:13:24.987Z,980.4
2019-05-05T08:14:26.267Z,980.4
2019-05-05T08:15:27.535Z,980.4
2019-05-05T08:16:28.838Z,980.4
2019-05-05T08:17:30.108Z,980.3
2019-05-05T08:18:31.343Z,980.3
2019-05-05T08:19:34.390Z,980.3
2019-05-05T08:20:35.967Z,980.4
2019-05-05T08:21:37.340Z,980.4
2019-05-05T08:22:41.385Z,980.3
2019-05-05T08:23:45.799Z,980.3
2019-05-05T08:24:50.203Z,980.4
2019-05-05T08:25:56.573Z,980.4
2019-05-05T08:27:00.888Z,980.4
2019-05-05T08:29:20.670Z,980.3
2019-05-05T08:30:25.539Z,980.4
2019-05-05T08:31:31.487Z,980.3
2019-05-05T08:32:40.699Z,980.4
2019-05-05T08:33:43.986Z,980.4
2019-05-05T08:35:01.098Z,980.3
2019-05-05T08:36:08.597Z,980.4
2019-05-05T08:37:14.721Z,980.4
2019-05-05T08:39:44.615Z,980.4
2019-05-05T08:40:54.301Z,980.5
2019-05-05T08:41:59.194Z,980.4
2019-05-05T08:43:01.714Z,980.4
2019-05-05T08:44:07.998Z,980.4
2019-05-05T08:45:09.743Z,980.4
2019-05-05T08:46:18.566Z,980.3
2019-05-05T08:47:28.297Z,980.3
2019-05-05T08:48:34.815Z,980.4
2019-05-05T08:49:47.364Z,980.4
2019-05-05T08:50:48.642Z,980.4
2019-05-05T08:51:51.357Z,980.4
2019-05-05T08:53:01.518Z,980.4
2019-05-05T08:54:04.902Z,980.4
2019-05-05T08:55:09.522Z,980.4
2019-05-05T08:56:14.360Z,980.4
2019-05-05T08:57:26.496Z,980.4
2019-05-05T08:58:34.368Z,980.4
2019-05-05T08:59:37.837Z,980.4
2019-05-05T09:00:39.140Z,980.4
2019-05-05T09:01:40.379Z,980.3
2019-05-05T09:02:43.687Z,980.3
2019-05-05T09:03:57.603Z,980.4
2019-05-05T09:05:04.048Z,980.3
2019-05-05T09:06:06.382Z,980.3
2019-05-05T09:07:07.626Z,980.3
2019-05-05T09:08:08.992Z,980.4
2019-05-05T09:09:14.390Z,980.4
2019-05-05T09:10:18.508Z,980.4
2019-05-05T09:11:19.976Z,980.4
2019-05-05T09:12:25.274Z,980.4
2019-05-05T09:13:27.374Z,980.3
2019-05-05T09:14:30.278Z,980.4
2019-05-05T09:15:33.759Z,980.4
2019-05-05T09:16:35.895Z,980.4
2019-05-05T09:17:37.287Z,980.3
2019-05-05T09:18:38.538Z,980.3
2019-05-05T09:19:40.004Z,980.4
2019-05-05T09:20:41.300Z,980.4
2019-05-05T09:21:45.499Z,980.4
2019-05-05T09:22:47.002Z,980.4
2019-05-05T09:24:02.958Z,980.3
2019-05-05T09:25:13.642Z,980.4
2019-05-05T09:26:16.817Z,980.4
2019-05-05T09:27:20.612Z,980.4
2019-05-05T09:28:28.115Z,980.4
2019-05-05T09:29:29.382Z,980.3
2019-05-05T09:30:30.660Z,980.4
2019-05-05T09:31:34.222Z,980.3
2019-05-05T09:32:35.744Z,980.4
2019-05-05T09:33:39.250Z,980.3
2019-05-05T09:34:40.626Z,980.4
2019-05-05T09:35:44.253Z,980.4
2019-05-05T09:36:45.541Z,980.4
2019-05-05T09:37:49.693Z,980.4
2019-05-05T09:38:54.824Z,980.4
2019-05-05T09:39:58.459Z,980.5
2019-05-05T09:40:59.721Z,980.5
2019-05-05T09:42:04.892Z,980.5
2019-05-05T09:43:06.378Z,980.5
2019-05-05T09:44:07.644Z,980.5
2019-05-05T09:45:08.949Z,980.5
2019-05-05T09:46:15.172Z,980.5
2019-05-05T09:47:16.612Z,980.5
2019-05-05T09:48:33.344Z,980.6
2019-05-05T09:49:35.078Z,980.5
2019-05-05T09:50:40.252Z,980.5
2019-05-05T09:51:44.786Z,980.5
2019-05-05T09:52:46.647Z,980.5
2019-05-05T09:53:47.969Z,980.5
2019-05-05T09:54:49.238Z,980.5
2019-05-05T09:55:50.518Z,980.6
2019-05-05T09:56:53.741Z,980.6
2019-05-05T09:57:56.332Z,980.6
2019-05-05T09:58:57.666Z,980.6
2019-05-05T09:59:58.956Z,980.6
2019-05-05T10:01:07.310Z,980.6
2019-05-05T10:02:08.584Z,980.6
2019-05-05T10:03:09.843Z,980.6
2019-05-05T10:04:11.142Z,980.7
2019-05-05T10:05:13.898Z,980.6
2019-05-05T10:06:17.361Z,980.6
2019-05-05T10:07:24.187Z,980.6
2019-05-05T10:08:25.647Z,980.6
2019-05-05T10:09:26.977Z,980.5
2019-05-05T10:10:28.257Z,980.5
2019-05-05T10:11:30.577Z,980.5
2019-05-05T10:12:33.679Z,980.5
2019-05-05T10:13:35.104Z,980.6
2019-05-05T10:14:39.370Z,980.5
2019-05-05T10:15:40.640Z,980.5
2019-05-05T10:16:44.391Z,980.6
2019-05-05T10:17:45.979Z,980.6
2019-05-05T10:18:48.231Z,980.6
2019-05-05T10:19:50.857Z,980.6
2019-05-05T10:20:53.916Z,980.6
2019-05-05T10:21:58.342Z,980.5
2019-05-05T10:23:01.055Z,980.6
2019-05-05T10:24:04.392Z,980.5
2019-05-05T10:25:06.281Z,980.6
2019-05-05T10:26:07.537Z,980.6
2019-05-05T10:27:08.788Z,980.6
2019-05-05T10:28:10.055Z,980.5
2019-05-05T10:29:13.176Z,980.5
2019-05-05T10:30:16.845Z,980.5
2019-05-05T10:31:18.147Z,980.6
2019-05-05T10:32:19.774Z,980.6
2019-05-05T10:33:21.061Z,980.6
2019-05-05T10:34:24.136Z,980.6
2019-05-05T10:35:25.551Z,980.6
2019-05-05T10:36:27.036Z,980.5
2019-05-05T10:37:28.276Z,980.6
2019-05-05T10:38:30.804Z,980.6
2019-05-05T10:39:34.157Z,980.6
2019-05-05T10:40:35.502Z,980.6
2019-05-05T10:41:38.953Z,980.6
2019-05-05T10:42:41.297Z,980.6
2019-05-05T10:43:44.523Z,980.6
2019-05-05T10:44:48.443Z,980.6
2019-05-05T10:45:50.227Z,980.5
2019-05-05T10:46:53.750Z,980.5
2019-05-05T10:47:55.344Z,980.6
2019-05-05T10:48:59.576Z,980.5
2019-05-05T10:51:11.215Z,980.6
2019-05-05T10:52:17.634Z,980.6
2019-05-05T10:53:18.927Z,980.5
2019-05-05T10:54:20.297Z,980.5
2019-05-05T10:55:23.328Z,980.5
2019-05-05T10:56:25.292Z,980.5
2019-05-05T10:57:26.566Z,980.5
2019-05-05T10:58:27.839Z,980.5
2019-05-05T10:59:29.098Z,980.5
2019-05-05T11:00:30.365Z,980.5
2019-05-05T11:01:31.895Z,980.5
2019-05-05T11:02:35.994Z,980.5
2019-05-05T11:03:39.466Z,980.4
2019-05-05T11:04:40.759Z,980.5
2019-05-05T11:05:44.901Z,980.5
2019-05-05T11:06:48.381Z,980.5
2019-05-05T11:07:49.639Z,980.5
2019-05-05T11:08:53.941Z,980.5
2019-05-05T11:10:10.521Z,980.6
2019-05-05T11:11:14.545Z,980.6
2019-05-05T11:12:15.840Z,980.6
2019-05-05T11:13:17.435Z,980.6
2019-05-05T11:14:20.918Z,980.6
2019-05-05T11:15:24.527Z,980.6
2019-05-05T11:16:26.354Z,980.6
2019-05-05T11:17:30.107Z,980.6
2019-05-05T11:18:34.675Z,980.6
2019-05-05T11:19:38.841Z,980.6
2019-05-05T11:20:40.545Z,980.6
2019-05-05T11:21:43.520Z,980.6
2019-05-05T11:22:46.352Z,980.7
2019-05-05T11:23:47.643Z,980.7
2019-05-05T11:25:01.615Z,980.7
2019-05-05T11:26:16.159Z,980.7
2019-05-05T11:27:17.620Z,980.7
2019-05-05T11:28:19.167Z,980.7
2019-05-05T11:29:20.533Z,980.7
2019-05-05T11:30:24.800Z,980.7
2019-05-05T11:31:30.419Z,980.7
2019-05-05T11:32:33.721Z,980.7
2019-05-05T11:33:38.205Z,980.7
2019-05-05T11:34:45.707Z,980.6
2019-05-05T11:35:46.983Z,980.4
2019-05-05T11:36:51.065Z,980.7
2019-05-05T11:37:54.084Z,980.6
2019-05-05T11:38:56.079Z,980.7
2019-05-05T11:39:57.389Z,980.6
2019-05-05T11:40:59.301Z,980.6
2019-05-05T11:42:00.773Z,980.7
2019-05-05T11:43:04.821Z,980.7
2019-05-05T11:44:06.281Z,980.7
2019-05-05T11:45:07.570Z,980.6
2019-05-05T11:46:08.826Z,980.6
2019-05-05T11:47:10.095Z,980.6
2019-05-05T11:48:11.341Z,980.6
2019-05-05T11:49:14.813Z,980.6
2019-05-05T11:50:16.352Z,980.6
2019-05-05T11:51:19.755Z,980.6
2019-05-05T11:52:21.035Z,980.5
2019-05-05T11:53:22.324Z,980.6
2019-05-05T11:54:28.060Z,980.6
2019-05-05T11:55:29.327Z,980.6
2019-05-05T11:56:30.585Z,980.6
2019-05-05T11:57:33.801Z,980.6
2019-05-05T11:58:35.113Z,980.6
2019-05-05T11:59:36.526Z,980.6
2019-05-05T12:00:37.805Z,980.7
2019-05-05T12:01:39.370Z,980.6
2019-05-05T12:02:40.658Z,980.6
2019-05-05T12:03:44.685Z,980.7
2019-05-05T12:04:45.974Z,980.7
2019-05-05T12:05:47.743Z,980.6
2019-05-05T12:06:52.330Z,980.7
2019-05-05T12:07:54.987Z,980.7
2019-05-05T12:08:56.325Z,980.6
2019-05-05T12:09:59.186Z,980.6
2019-05-05T12:11:00.487Z,980.6
2019-05-05T12:12:03.602Z,980.6
2019-05-05T12:13:05.139Z,980.7
2019-05-05T12:14:09.167Z,980.7
2019-05-05T12:15:13.400Z,980.6
2019-05-05T12:16:17.472Z,980.7
2019-05-05T12:17:18.738Z,980.6
2019-05-05T12:18:20.246Z,980.7
2019-05-05T12:19:25.369Z,980.6
2019-05-05T12:20:26.650Z,980.7
2019-05-05T12:21:27.930Z,980.6
2019-05-05T12:22:29.184Z,980.6
2019-05-05T12:23:33.721Z,980.7
2019-05-05T12:24:37.595Z,980.7
2019-05-05T12:25:43.320Z,980.7
2019-05-05T12:26:45.149Z,980.6
2019-05-05T12:27:46.408Z,980.6
2019-05-05T12:28:47.674Z,980.6
2019-05-05T12:29:48.970Z,980.6
2019-05-05T12:30:50.304Z,980.5
2019-05-05T12:31:51.865Z,980.6
2019-05-05T12:32:55.167Z,980.6
2019-05-05T12:33:56.611Z,980.6
2019-05-05T12:34:57.910Z,980.6
2019-05-05T12:35:59.233Z,980.5
2019-05-05T12:37:00.508Z,980.6
2019-05-05T12:38:01.834Z,980.6
2019-05-05T12:39:07.235Z,980.5
2019-05-05T12:40:08.509Z,980.6
2019-05-05T12:41:09.797Z,980.6
2019-05-05T12:42:13.836Z,980.6
2019-05-05T12:43:15.910Z,980.5
2019-05-05T12:44:24.266Z,980.5
2019-05-05T12:45:25.543Z,980.5
2019-05-05T12:46:27.114Z,980.5
2019-05-05T12:47:28.370Z,980.5
2019-05-05T12:48:29.654Z,980.5
2019-05-05T12:49:30.917Z,980.5
2019-05-05T12:50:34.430Z,980.4
2019-05-05T12:51:39.281Z,980.5
2019-05-05T12:52:40.643Z,980.5
2019-05-05T12:53:41.923Z,980.5
2019-05-05T12:54:46.230Z,980.5
2019-05-05T12:55:48.832Z,980.5
2019-05-05T12:56:50.445Z,980.4
2019-05-05T12:57:55.162Z,980.5
2019-05-05T12:58:56.450Z,980.5
2019-05-05T13:00:00.895Z,980.4
2019-05-05T13:01:04.526Z,980.4
2019-05-05T13:02:08.057Z,980.5
2019-05-05T13:03:09.617Z,980.5
2019-05-05T13:04:10.882Z,980.5
2019-05-05T13:05:14.272Z,980.3
2019-05-05T13:06:16.233Z,980.5
2019-05-05T13:07:17.526Z,980.5
2019-05-05T13:08:23.506Z,980.5
2019-05-05T13:09:27.466Z,980.5
2019-05-05T13:10:28.754Z,980.5
2019-05-05T13:11:33.812Z,980.5
2019-05-05T13:12:35.672Z,980.5
2019-05-05T13:13:38.638Z,980.4
2019-05-05T13:14:39.917Z,980.4
2019-05-05T13:15:41.298Z,980.5
2019-05-05T13:16:55.851Z,980.4
2019-05-05T13:17:59.195Z,980.5
2019-05-05T13:19:00.496Z,980.4
2019-05-05T13:20:06.610Z,980.4
2019-05-05T13:21:07.995Z,980.5
2019-05-05T13:22:10.771Z,980.5
2019-05-05T13:23:14.297Z,980.5
2019-05-05T13:24:16.378Z,980.4
2019-05-05T13:25:17.676Z,980.5
2019-05-05T13:26:23.691Z,980.4
2019-05-05T13:27:25.729Z,980.4
2019-05-05T13:28:27.325Z,980.4
2019-05-05T13:29:28.821Z,980.4
2019-05-05T13:30:30.411Z,980.4
2019-05-05T13:31:33.589Z,980.4
2019-05-05T13:32:35.095Z,980.4